Time;durP1;ratioP1;P1;durP2;ratioP2;P2;SDS_P1;SDS_P2;PMS_P1;PMS_P2;Temp;Humidity;BMP_temperature;BMP_pressure;BME280_temperature;BME280_humidity;BME280_pressure;Samples;Min_cycle;Max_cycle;Signal;HPM_P1;HPM_P2
2022/06/09 00:01:10;;;;;;;1.37;1.10;;;23.20;57.00;;;;;;5017636;28;20560;-45
2022/06/09 00:03:45;;;;;;;1.23;1.13;;;23.20;57.00;;;;;;5019173;28;20455;-49
2022/06/09 00:06:12;;;;;;;1.33;0.93;;;23.20;56.90;;;;;;5015665;28;20492;-48
2022/06/09 00:08:51;;;;;;;1.70;1.20;;;23.20;56.90;;;;;;5023835;28;20491;-47
2022/06/09 00:11:21;;;;;;;4.30;1.73;;;23.20;57.10;;;;;;5018208;28;20440;-45
2022/06/09 00:13:47;;;;;;;1.57;1.13;;;23.20;57.10;;;;;;5011162;28;20803;-48
2022/06/09 00:16:14;;;;;;;5.27;1.30;;;23.20;57.20;;;;;;5021832;28;20497;-44
2022/06/09 00:18:40;;;;;;;2.73;1.47;;;23.20;57.10;;;;;;5020999;28;20784;-45
2022/06/09 00:21:06;;;;;;;1.17;1.07;;;23.20;57.40;;;;;;5017787;28;20445;-45
2022/06/09 00:23:31;;;;;;;1.50;1.40;;;23.20;57.10;;;;;;5016652;28;20205;-44
2022/06/09 00:25:57;;;;;;;5.13;1.20;;;23.20;57.40;;;;;;5024236;28;20225;-44
2022/06/09 00:28:23;;;;;;;3.83;1.00;;;23.10;57.00;;;;;;5023248;28;20284;-46
2022/06/09 00:30:50;;;;;;;1.47;0.90;;;23.20;57.80;;;;;;5020607;28;20201;-45
2022/06/09 00:33:15;;;;;;;3.53;1.60;;;23.20;57.20;;;;;;5016847;28;20208;-44
2022/06/09 00:35:41;;;;;;;1.03;1.03;;;23.20;57.10;;;;;;5018744;28;20440;-46
2022/06/09 00:38:07;;;;;;;6.37;1.20;;;23.30;57.10;;;;;;5020617;28;20232;-44
2022/06/09 00:40:33;;;;;;;1.20;1.10;;;23.30;56.80;;;;;;5021635;28;20202;-44
2022/06/09 00:43:01;;;;;;;2.03;1.10;;;23.30;56.80;;;;;;5022077;28;20487;-44
2022/06/09 00:45:51;;;;;;;2.57;1.20;;;23.30;56.90;;;;;;5019518;28;20499;-45
2022/06/09 00:48:44;;;;;;;1.20;1.10;;;23.30;57.00;;;;;;5015409;28;20982;-45
2022/06/09 00:51:12;;;;;;;1.80;1.20;;;23.30;56.90;;;;;;5021727;28;20495;-45
2022/06/09 00:53:40;;;;;;;1.30;1.20;;;23.30;56.80;;;;;;5016387;28;20448;-46
2022/06/09 00:56:08;;;;;;;1.17;1.13;;;23.30;56.90;;;;;;5019991;28;20495;-46
2022/06/09 00:58:38;;;;;;;1.53;1.00;;;23.30;56.90;;;;;;5018518;28;20436;-44
2022/06/09 01:01:07;;;;;;;2.07;1.40;;;23.30;56.90;;;;;;5012727;28;20517;-44
2022/06/09 01:03:50;;;;;;;0.90;0.90;;;23.30;56.90;;;;;;5027652;28;20960;-44
2022/06/09 01:06:20;;;;;;;3.80;1.17;;;23.30;56.80;;;;;;5021223;28;20854;-44
2022/06/09 01:08:59;;;;;;;4.13;1.23;;;23.30;56.90;;;;;;5017287;28;20440;-45
2022/06/09 01:11:25;;;;;;;8.60;1.23;;;23.30;56.30;;;;;;5017433;28;20482;-45
2022/06/09 01:13:52;;;;;;;2.00;0.97;;;23.30;56.50;;;;;;5022699;28;20443;-44
2022/06/09 01:16:43;;;;;;;1.97;0.83;;;23.30;56.60;;;;;;5016576;28;20471;-48
2022/06/09 01:19:30;;;;;;;1.10;1.00;;;23.30;56.40;;;;;;5015061;28;20440;-46
2022/06/09 01:22:07;;;;;;;1.30;0.93;;;23.30;56.40;;;;;;5013007;28;20451;-46
2022/06/09 01:24:57;;;;;;;1.37;1.20;;;23.30;56.20;;;;;;5021986;28;20565;-46
2022/06/09 01:27:50;;;;;;;1.17;1.10;;;23.30;56.00;;;;;;5009045;28;20960;-44
2022/06/09 01:30:40;;;;;;;3.53;1.20;;;23.30;56.30;;;;;;5022020;28;20448;-45
2022/06/09 01:33:28;;;;;;;3.53;1.03;;;23.20;56.40;;;;;;5010803;28;20467;-45
2022/06/09 01:36:04;;;;;;;1.20;1.10;;;22.80;56.50;;;;;;5023279;28;20948;-43
2022/06/09 01:38:42;;;;;;;3.50;0.93;;;22.70;57.20;;;;;;5030423;28;20448;-44
2022/06/09 01:41:08;;;;;;;1.13;0.90;;;22.40;56.90;;;;;;5022236;28;20447;-45
2022/06/09 01:43:33;;;;;;;0.77;0.77;;;22.20;57.60;;;;;;5021223;28;20447;-44
2022/06/09 01:46:09;;;;;;;1.00;0.90;;;22.20;57.60;;;;;;5016288;28;20312;-45
2022/06/09 01:48:36;;;;;;;0.80;0.80;;;21.80;58.00;;;;;;5021742;28;20532;-45
2022/06/09 01:51:14;;;;;;;0.90;0.77;;;21.80;58.60;;;;;;5023580;28;20924;-44
2022/06/09 01:53:51;;;;;;;16.07;1.37;;;21.50;58.70;;;;;;5025765;28;20455;-43
2022/06/09 01:56:36;;;;;;;1.37;0.87;;;21.60;59.30;;;;;;5027081;28;20478;-45
2022/06/09 01:59:21;;;;;;;2.53;0.83;;;21.80;59.20;;;;;;5024527;28;20531;-44
2022/06/09 02:01:55;;;;;;;0.70;0.70;;;22.00;58.30;;;;;;5020258;28;20943;-44
2022/06/09 02:04:54;;;;;;;1.03;0.80;;;22.00;58.00;;;;;;5025056;28;20966;-45
2022/06/09 02:07:21;;;;;;;0.60;0.53;;;22.00;58.30;;;;;;5015345;28;20464;-43
2022/06/09 02:09:47;;;;;;;1.60;0.90;;;22.00;58.20;;;;;;5034350;28;20457;-44
2022/06/09 02:12:16;;;;;;;1.87;1.03;;;22.00;58.30;;;;;;5031777;28;20448;-44
2022/06/09 02:14:49;;;;;;;0.60;0.60;;;22.00;58.50;;;;;;5017387;28;20452;-44
2022/06/09 02:17:16;;;;;;;1.00;0.70;;;22.00;58.60;;;;;;5026133;28;20445;-44
2022/06/09 02:19:43;;;;;;;0.70;0.70;;;21.80;58.20;;;;;;5026939;28;20534;-45
2022/06/09 02:22:11;;;;;;;0.60;0.60;;;21.70;58.70;;;;;;5023989;28;20520;-43
2022/06/09 02:24:37;;;;;;;2.50;0.80;;;21.70;59.10;;;;;;5026015;28;20595;-43
2022/06/09 02:27:03;;;;;;;3.20;0.70;;;21.70;59.40;;;;;;5022916;28;20557;-44
2022/06/09 02:29:28;;;;;;;1.67;1.10;;;21.70;59.30;;;;;;5019710;28;20915;-44
2022/06/09 02:31:55;;;;;;;1.03;0.93;;;21.80;59.30;;;;;;5025243;28;20535;-44
2022/06/09 02:34:21;;;;;;;4.80;0.80;;;21.90;59.20;;;;;;5017301;28;20205;-44
2022/06/09 02:36:47;;;;;;;1.10;0.87;;;22.00;59.00;;;;;;5022482;28;20436;-44
2022/06/09 02:39:12;;;;;;;0.80;0.80;;;22.10;58.80;;;;;;5015103;28;20448;-45
2022/06/09 02:41:38;;;;;;;0.97;0.60;;;22.20;58.50;;;;;;5025419;28;20296;-45
2022/06/09 02:44:04;;;;;;;2.20;0.73;;;22.30;58.30;;;;;;5012654;28;20642;-43
2022/06/09 02:46:31;;;;;;;2.27;0.80;;;22.40;58.10;;;;;;5020077;28;20237;-44
2022/06/09 02:48:57;;;;;;;1.13;1.00;;;22.50;57.90;;;;;;5028649;28;20205;-44
2022/06/09 02:51:29;;;;;;;1.10;1.00;;;22.60;57.80;;;;;;5019347;28;20952;-44
2022/06/09 02:53:58;;;;;;;1.33;0.70;;;22.60;57.70;;;;;;5015812;28;20202;-44
2022/06/09 02:56:25;;;;;;;0.70;0.70;;;22.70;58.10;;;;;;5018774;28;20555;-44
2022/06/09 02:58:51;;;;;;;3.70;1.00;;;22.80;57.30;;;;;;5019933;28;21385;-43
2022/06/09 03:01:17;;;;;;;1.67;1.00;;;22.80;57.20;;;;;;5025267;28;20525;-44
2022/06/09 03:03:42;;;;;;;1.17;0.80;;;22.80;57.10;;;;;;5018603;28;20448;-45
2022/06/09 03:06:08;;;;;;;1.40;0.93;;;22.80;57.00;;;;;;5025128;28;20313;-44
2022/06/09 03:08:34;;;;;;;1.10;0.90;;;22.80;56.90;;;;;;5015875;28;20611;-43
2022/06/09 03:11:00;;;;;;;1.17;1.17;;;22.80;56.90;;;;;;5017132;28;20444;-45
2022/06/09 03:13:26;;;;;;;0.90;0.90;;;22.80;56.80;;;;;;5016581;28;20201;-43
2022/06/09 03:15:51;;;;;;;0.80;0.80;;;22.80;56.70;;;;;;5021975;28;20272;-44
2022/06/09 03:18:18;;;;;;;1.23;0.90;;;22.90;56.70;;;;;;5016039;28;20568;-44
2022/06/09 03:20:44;;;;;;;1.57;1.50;;;22.90;56.60;;;;;;5013397;28;20658;-44
2022/06/09 03:23:10;;;;;;;1.20;1.10;;;22.80;56.40;;;;;;5021954;28;20444;-44
2022/06/09 03:25:35;;;;;;;1.57;1.00;;;22.90;56.40;;;;;;5015188;28;20959;-43
2022/06/09 03:28:01;;;;;;;1.30;1.00;;;22.90;56.40;;;;;;5023107;28;20936;-43
2022/06/09 03:30:27;;;;;;;1.13;1.03;;;22.90;56.30;;;;;;5015485;28;20220;-43
2022/06/09 03:32:52;;;;;;;1.63;1.47;;;23.00;56.20;;;;;;5025511;28;20285;-44
2022/06/09 03:35:18;;;;;;;0.90;0.90;;;22.90;56.00;;;;;;5024892;28;20287;-46
2022/06/09 03:37:44;;;;;;;1.23;1.07;;;22.90;56.10;;;;;;5022989;28;20201;-44
2022/06/09 03:40:15;;;;;;;1.00;0.90;;;22.90;56.00;;;;;;5020317;28;20280;-44
2022/06/09 03:42:41;;;;;;;0.90;0.90;;;22.90;56.00;;;;;;5015905;28;20205;-43
2022/06/09 03:45:08;;;;;;;1.00;0.87;;;23.00;56.00;;;;;;5024245;28;20440;-44
2022/06/09 03:47:34;;;;;;;1.87;1.20;;;23.00;56.00;;;;;;5009438;28;20202;-47
2022/06/09 03:49:59;;;;;;;3.30;1.07;;;22.90;56.00;;;;;;5014271;28;20440;-43
2022/06/09 03:52:25;;;;;;;1.77;1.00;;;22.90;55.90;;;;;;5010148;28;20226;-44
2022/06/09 03:54:51;;;;;;;2.53;1.07;;;22.80;55.90;;;;;;5021401;28;20346;-45
2022/06/09 03:57:18;;;;;;;1.90;1.43;;;22.80;56.10;;;;;;5023031;28;20539;-43
2022/06/09 03:59:44;;;;;;;1.27;0.97;;;22.80;56.30;;;;;;5017531;28;20201;-44
2022/06/09 04:02:10;;;;;;;1.40;1.30;;;22.80;56.10;;;;;;5023545;28;20455;-43
2022/06/09 04:04:36;;;;;;;1.90;1.20;;;22.70;56.20;;;;;;5022073;28;20190;-43
2022/06/09 04:07:01;;;;;;;3.07;1.13;;;22.80;56.30;;;;;;5021187;28;20606;-44
2022/06/09 04:09:27;;;;;;;2.00;0.97;;;22.70;56.30;;;;;;5019877;28;20535;-44
2022/06/09 04:11:53;;;;;;;1.87;0.90;;;22.80;56.50;;;;;;5017923;28;20212;-44
2022/06/09 04:14:18;;;;;;;7.13;1.10;;;22.80;56.40;;;;;;5023127;28;20574;-44
2022/06/09 04:16:44;;;;;;;1.90;1.33;;;22.90;56.30;;;;;;5027498;28;20646;-45
2022/06/09 04:19:13;;;;;;;1.10;1.00;;;22.90;56.40;;;;;;5023705;28;20193;-43
2022/06/09 04:21:39;;;;;;;1.43;0.90;;;22.90;56.20;;;;;;5016601;28;20252;-44
2022/06/09 04:24:05;;;;;;;2.60;1.00;;;22.90;56.10;;;;;;5014423;28;20433;-43
2022/06/09 04:26:34;;;;;;;7.93;1.30;;;23.00;56.30;;;;;;5015464;28;20492;-44
2022/06/09 04:29:00;;;;;;;3.53;1.33;;;23.00;56.20;;;;;;5024155;28;20483;-43
2022/06/09 04:31:25;;;;;;;1.27;1.17;;;23.00;56.10;;;;;;5023417;28;21013;-43
2022/06/09 04:33:51;;;;;;;1.27;1.10;;;23.00;56.30;;;;;;5015263;28;20284;-44
2022/06/09 04:36:19;;;;;;;2.73;1.27;;;23.00;56.30;;;;;;5018710;28;20269;-43
2022/06/09 04:38:45;;;;;;;2.40;1.00;;;23.00;56.20;;;;;;5019815;28;20477;-44
2022/06/09 04:41:13;;;;;;;2.50;1.40;;;23.00;56.10;;;;;;5014861;28;20450;-43
2022/06/09 04:43:44;;;;;;;1.80;1.30;;;23.00;56.00;;;;;;5019179;28;20441;-44
2022/06/09 04:46:13;;;;;;;2.60;1.17;;;22.80;56.20;;;;;;5019674;28;20885;-43
2022/06/09 04:48:39;;;;;;;2.50;1.80;;;22.80;56.30;;;;;;5020907;28;20502;-44
2022/06/09 04:51:09;;;;;;;9.83;1.70;;;22.70;56.30;;;;;;5013049;28;20440;-44
2022/06/09 04:53:38;;;;;;;1.70;1.60;;;22.70;56.70;;;;;;5020799;28;20436;-44
2022/06/09 04:56:04;;;;;;;2.23;1.50;;;22.40;56.90;;;;;;5017399;28;20948;-44
2022/06/09 04:58:31;;;;;;;1.80;1.70;;;22.30;57.40;;;;;;5027719;28;20437;-44
2022/06/09 05:00:57;;;;;;;1.60;1.50;;;22.10;57.80;;;;;;5025476;28;20489;-44
2022/06/09 05:03:23;;;;;;;1.80;1.23;;;22.00;58.00;;;;;;5023282;28;20436;-44
2022/06/09 05:05:50;;;;;;;4.67;1.70;;;21.90;57.90;;;;;;5019030;28;20491;-44
2022/06/09 05:08:16;;;;;;;2.70;1.60;;;21.70;58.00;;;;;;5015243;28;20444;-44
2022/06/09 05:10:45;;;;;;;1.53;1.30;;;21.50;58.20;;;;;;5017414;28;20433;-44
2022/06/09 05:13:12;;;;;;;1.93;1.70;;;21.50;58.30;;;;;;5007616;28;20448;-43
2022/06/09 05:15:47;;;;;;;3.10;1.30;;;21.20;58.40;;;;;;5021360;28;20541;-44
2022/06/09 05:18:13;;;;;;;3.13;1.90;;;21.00;59.10;;;;;;5018283;28;20448;-43
2022/06/09 05:20:39;;;;;;;5.20;1.77;;;21.10;59.40;;;;;;5020611;28;20444;-43
2022/06/09 05:23:04;;;;;;;3.67;1.43;;;21.00;60.30;;;;;;5024428;28;20566;-44
2022/06/09 05:25:30;;;;;;;3.20;1.40;;;21.10;59.90;;;;;;5017436;28;20240;-44
2022/06/09 05:27:56;;;;;;;4.13;2.23;;;20.80;59.80;;;;;;5028269;28;20189;-44
2022/06/09 05:30:24;;;;;;;3.60;1.60;;;20.70;60.70;;;;;;5022775;28;20217;-43
2022/06/09 05:32:50;;;;;;;4.53;1.70;;;20.70;60.60;;;;;;5022476;28;20280;-45
2022/06/09 05:35:16;;;;;;;6.30;1.93;;;20.70;60.40;;;;;;5029165;28;20510;-44
2022/06/09 05:45:58;;;;;;;3.83;1.63;;;20.60;60.70;;;;;;5031556;28;20490;-43
2022/06/09 05:48:24;;;;;;;4.30;1.73;;;20.70;59.90;;;;;;5026831;28;20999;-43
2022/06/09 05:50:51;;;;;;;3.00;1.83;;;20.90;59.80;;;;;;5023711;28;20249;-44
2022/06/09 05:53:18;;;;;;;1.90;1.50;;;21.00;60.00;;;;;;5019569;28;20439;-44
2022/06/09 05:55:43;;;;;;;3.67;1.80;;;21.10;59.70;;;;;;5020350;28;20818;-43
2022/06/09 05:58:10;;;;;;;5.10;2.03;;;21.20;59.50;;;;;;5022903;28;20490;-43
2022/06/09 06:00:37;;;;;;;4.63;1.73;;;21.00;60.00;;;;;;5023265;28;20237;-44
2022/06/09 06:03:03;;;;;;;4.33;1.73;;;21.10;59.60;;;;;;5020021;28;20809;-45
2022/06/09 06:08:12;;;;;;;2.13;1.57;;;21.40;58.90;;;;;;5019543;28;20526;-45
2022/06/09 06:10:38;;;;;;;3.70;1.83;;;21.00;59.10;;;;;;5033112;28;20939;-48
2022/06/09 06:13:04;;;;;;;5.43;1.83;;;21.10;58.90;;;;;;5032240;28;20205;-44
2022/06/09 06:15:29;;;;;;;2.80;1.50;;;21.10;58.70;;;;;;5032071;28;20299;-44
2022/06/09 06:17:55;;;;;;;3.60;1.73;;;21.20;58.40;;;;;;5032227;28;20200;-47
2022/06/09 06:20:21;;;;;;;4.43;1.60;;;21.10;58.90;;;;;;5031577;28;20216;-45
2022/06/09 06:22:46;;;;;;;6.57;1.63;;;21.20;58.20;;;;;;5032174;28;20189;-44
2022/06/09 06:25:12;;;;;;;6.70;2.00;;;21.10;58.20;;;;;;5032067;28;20420;-44
2022/06/09 06:27:38;;;;;;;2.17;1.90;;;21.00;57.90;;;;;;5032465;28;20197;-44
2022/06/09 06:30:05;;;;;;;3.73;1.83;;;21.30;57.80;;;;;;5030936;28;20483;-46
2022/06/09 06:32:31;;;;;;;7.17;1.60;;;21.20;57.70;;;;;;5030564;28;20280;-45
2022/06/09 06:34:57;;;;;;;4.47;1.77;;;21.30;57.80;;;;;;5032473;28;20777;-46
2022/06/09 06:37:23;;;;;;;6.33;1.77;;;21.50;57.80;;;;;;5032101;28;20427;-45
2022/06/09 06:39:49;;;;;;;5.03;1.93;;;21.60;57.10;;;;;;5032755;28;20204;-44
2022/06/09 06:42:15;;;;;;;3.30;1.73;;;21.50;56.50;;;;;;5031504;28;20220;-45
2022/06/09 06:44:40;;;;;;;1.67;1.20;;;21.30;56.50;;;;;;5031259;28;20212;-47
2022/06/09 06:47:06;;;;;;;5.13;1.70;;;21.50;57.40;;;;;;5030487;28;20783;-45
2022/06/09 06:49:32;;;;;;;2.73;1.67;;;21.70;57.40;;;;;;5032299;28;20225;-46
2022/06/09 06:51:57;;;;;;;3.23;1.53;;;21.90;56.40;;;;;;5031452;28;20197;-47
2022/06/09 06:54:23;;;;;;;4.83;1.70;;;22.00;55.80;;;;;;5030667;28;20197;-47
2022/06/09 06:56:48;;;;;;;4.00;1.77;;;22.00;56.00;;;;;;5029188;28;20197;-47
2022/06/09 06:59:14;;;;;;;7.67;1.73;;;22.20;56.00;;;;;;5031330;28;20637;-44
2022/06/09 07:01:40;;;;;;;2.10;2.00;;;22.20;55.60;;;;;;5031075;28;20236;-45
2022/06/09 07:04:05;;;;;;;2.60;1.60;;;22.30;55.30;;;;;;5031915;28;20193;-48
2022/06/09 07:06:31;;;;;;;2.27;1.80;;;22.50;55.50;;;;;;5031513;28;20248;-44
2022/06/09 07:08:56;;;;;;;14.10;1.93;;;22.30;53.60;;;;;;5028688;28;20221;-46
2022/06/09 07:11:22;;;;;;;3.47;1.67;;;22.10;54.40;;;;;;5025675;28;20194;-45
2022/06/09 07:13:49;;;;;;;6.00;1.70;;;21.90;54.70;;;;;;5013113;28;20201;-44
2022/06/09 07:16:15;;;;;;;2.17;1.50;;;21.90;55.50;;;;;;5021016;28;20197;-45
2022/06/09 07:18:41;;;;;;;4.83;2.10;;;22.30;55.40;;;;;;5018699;28;21426;-45
2022/06/09 07:21:07;;;;;;;5.20;1.87;;;22.60;54.40;;;;;;5021744;28;20450;-44
2022/06/09 07:23:33;;;;;;;2.40;1.40;;;22.70;53.60;;;;;;5020070;28;20200;-48
2022/06/09 07:26:00;;;;;;;3.87;1.67;;;22.70;53.40;;;;;;5026883;28;20233;-45
2022/06/09 07:28:27;;;;;;;4.13;1.10;;;22.80;53.20;;;;;;5025763;28;20494;-48
2022/06/09 07:30:56;;;;;;;3.30;2.00;;;22.60;52.90;;;;;;5024008;28;20919;-46
2022/06/09 07:33:23;;;;;;;4.53;1.70;;;22.70;52.40;;;;;;5020166;28;20440;-46
2022/06/09 07:35:51;;;;;;;5.70;1.67;;;22.60;52.50;;;;;;5015634;28;20436;-43
2022/06/09 07:38:17;;;;;;;6.03;2.10;;;22.70;54.00;;;;;;5014734;28;20857;-47
2022/06/09 07:40:43;;;;;;;6.67;1.80;;;22.80;52.30;;;;;;5015902;28;20448;-46
2022/06/09 07:43:10;;;;;;;4.03;2.03;;;22.80;51.50;;;;;;5012714;28;20459;-48
2022/06/09 07:45:39;;;;;;;5.63;1.57;;;22.90;51.30;;;;;;5021717;28;20228;-49
2022/06/09 07:48:05;;;;;;;2.90;1.40;;;23.10;51.70;;;;;;5016480;28;20864;-45
2022/06/09 07:50:34;;;;;;;4.90;1.60;;;23.00;50.90;;;;;;5023243;28;20490;-49
2022/06/09 07:53:00;;;;;;;3.07;1.37;;;23.00;50.90;;;;;;5019755;28;20497;-47
2022/06/09 07:55:26;;;;;;;3.47;1.77;;;23.00;50.10;;;;;;5021512;28;20444;-46
2022/06/09 07:57:52;;;;;;;3.67;1.30;;;22.90;50.40;;;;;;5028290;28;21253;-46
2022/06/09 08:00:20;;;;;;;7.07;1.77;;;22.70;52.20;;;;;;5017893;28;20480;-49
2022/06/09 08:02:46;;;;;;;6.77;1.70;;;22.70;50.80;;;;;;5020255;28;20451;-45
2022/06/09 08:05:14;;;;;;;3.70;1.40;;;22.80;50.80;;;;;;5023705;28;20924;-48
2022/06/09 08:07:41;;;;;;;2.73;1.70;;;22.60;51.30;;;;;;5020446;28;20193;-46
2022/06/09 08:10:07;;;;;;;4.60;1.67;;;22.80;51.50;;;;;;5020883;28;20455;-49
2022/06/09 08:12:33;;;;;;;3.10;1.00;;;23.20;51.40;;;;;;5023064;28;20445;-45
2022/06/09 08:14:59;;;;;;;2.87;1.43;;;23.40;51.30;;;;;;5022116;28;20451;-45
2022/06/09 08:17:25;;;;;;;2.77;1.27;;;23.50;50.30;;;;;;5017526;28;20208;-49
2022/06/09 08:19:52;;;;;;;3.93;1.77;;;23.60;50.40;;;;;;5021369;28;20243;-48
2022/06/09 08:22:18;;;;;;;11.30;2.20;;;23.70;51.00;;;;;;5026182;28;20443;-49
2022/06/09 08:24:44;;;;;;;4.03;1.50;;;23.90;49.70;;;;;;5018792;28;20993;-45
2022/06/09 08:27:10;;;;;;;6.20;2.60;;;23.80;49.10;;;;;;5017441;28;20488;-45
2022/06/09 08:29:36;;;;;;;6.07;1.53;;;23.70;49.20;;;;;;5024649;28;20197;-46
2022/06/09 08:32:02;;;;;;;6.07;1.50;;;23.80;50.00;;;;;;5022809;28;20197;-48
2022/06/09 08:34:28;;;;;;;3.50;1.50;;;23.90;48.50;;;;;;5029001;28;20783;-46
2022/06/09 08:36:54;;;;;;;3.97;1.67;;;23.90;48.80;;;;;;5017681;28;20443;-46
2022/06/09 08:39:20;;;;;;;5.10;1.20;;;24.00;48.40;;;;;;5038545;28;20484;-46
2022/06/09 08:42:08;;;;;;;2.07;1.00;;;24.20;48.80;;;;;;5034990;28;20193;-49
2022/06/09 08:45:00;;;;;;;8.57;1.57;;;23.80;47.90;;;;;;5029303;28;20196;-46
2022/06/09 08:47:37;;;;;;;2.40;1.13;;;23.80;48.60;;;;;;5022839;28;20491;-49
2022/06/09 08:50:21;;;;;;;4.80;1.30;;;23.60;46.30;;;;;;5019424;28;20482;-45
2022/06/09 08:53:00;;;;;;;2.53;0.93;;;23.90;48.30;;;;;;5015616;28;20455;-45
2022/06/09 08:55:47;;;;;;;2.30;0.87;;;24.00;46.70;;;;;;5022652;28;20851;-50
2022/06/09 08:58:40;;;;;;;1.93;1.33;;;23.90;46.90;;;;;;5018577;28;20586;-50
2022/06/09 09:01:25;;;;;;;3.10;1.47;;;23.70;47.60;;;;;;5021962;28;20525;-46
2022/06/09 09:04:04;;;;;;;2.93;1.37;;;23.60;47.30;;;;;;5020259;28;20463;-47
2022/06/09 09:06:43;;;;;;;4.27;1.50;;;23.50;47.00;;;;;;5016871;28;20526;-46
2022/06/09 09:09:15;;;;;;;5.80;1.80;;;23.60;48.10;;;;;;5024684;28;20445;-47
2022/06/09 09:11:46;;;;;;;3.07;1.30;;;24.00;47.90;;;;;;5024240;28;20791;-49
2022/06/09 09:14:37;;;;;;;5.50;1.40;;;24.30;47.30;;;;;;5020987;28;20476;-50
2022/06/09 09:17:02;;;;;;;3.53;1.50;;;24.60;46.50;;;;;;5014692;28;20448;-46
2022/06/09 09:19:28;;;;;;;3.57;1.80;;;24.70;46.00;;;;;;5020015;28;20809;-46
2022/06/09 09:22:17;;;;;;;5.63;1.73;;;24.80;45.00;;;;;;5019095;28;20194;-45
2022/06/09 09:25:20;;;;;;;1.53;1.23;;;24.60;44.30;;;;;;5016046;28;20194;-45
2022/06/09 09:28:01;;;;;;;1.60;1.40;;;24.00;45.80;;;;;;5018007;28;20554;-46
2022/06/09 09:30:39;;;;;;;2.43;1.50;;;23.50;46.90;;;;;;5021747;28;20451;-49
2022/06/09 09:33:05;;;;;;;2.60;1.23;;;23.40;47.10;;;;;;5009828;28;21188;-49
2022/06/09 09:35:41;;;;;;;3.40;1.20;;;23.70;46.80;;;;;;5023631;28;20451;-46
2022/06/09 09:38:09;;;;;;;2.70;1.43;;;23.90;46.90;;;;;;5016689;28;20276;-45
2022/06/09 09:40:44;;;;;;;3.03;1.50;;;24.00;46.30;;;;;;5024979;28;20451;-47
2022/06/09 09:43:14;;;;;;;4.60;1.33;;;24.20;45.60;;;;;;5026281;28;20962;-46
2022/06/09 09:45:45;;;;;;;1.77;1.20;;;24.40;45.00;;;;;;5020852;28;20506;-47
2022/06/09 09:48:33;;;;;;;7.63;1.60;;;24.50;45.20;;;;;;5017374;28;20452;-47
2022/06/09 09:51:11;;;;;;;2.07;1.20;;;23.80;43.70;;;;;;5013772;28;20481;-46
2022/06/09 09:53:46;;;;;;;2.30;1.10;;;23.70;44.80;;;;;;5007211;28;20488;-47
2022/06/09 09:56:18;;;;;;;2.70;1.00;;;23.80;44.60;;;;;;5021566;28;20563;-47
2022/06/09 09:58:49;;;;;;;4.70;1.27;;;24.10;45.70;;;;;;5010897;28;20543;-48
2022/06/09 10:01:18;;;;;;;3.27;1.50;;;24.50;45.00;;;;;;5015649;28;21084;-46
2022/06/09 10:09:56;;;;;;;5.03;1.30;;;25.00;43.30;;;;;;5031025;28;20454;-46
2022/06/09 10:12:24;;;;;;;2.33;1.17;;;25.40;42.60;;;;;;5017072;28;20463;-51
2022/06/09 10:15:02;;;;;;;3.10;1.40;;;25.40;41.30;;;;;;5019995;28;20452;-49
2022/06/09 10:17:49;;;;;;;1.70;0.90;;;25.60;41.90;;;;;;5025208;28;20534;-48
2022/06/09 10:20:36;;;;;;;2.70;1.00;;;25.70;42.40;;;;;;5012273;28;20480;-46
2022/06/09 10:23:11;;;;;;;3.00;1.47;;;26.10;42.30;;;;;;5017776;28;20475;-45
2022/06/09 10:25:57;;;;;;;3.13;1.20;;;26.50;41.70;;;;;;5024667;28;20532;-45
2022/06/09 10:28:35;;;;;;;1.40;1.30;;;26.70;40.90;;;;;;5025855;28;20440;-45
2022/06/09 10:31:21;;;;;;;11.77;3.60;;;26.70;42.40;;;;;;5017287;28;20447;-46
2022/06/09 10:34:00;;;;;;;3.93;1.23;;;26.70;42.10;;;;;;5022755;28;20478;-47
2022/06/09 10:36:50;;;;;;;4.33;1.60;;;26.80;39.70;;;;;;5024301;28;20478;-48
2022/06/09 10:39:32;;;;;;;3.83;1.20;;;26.70;40.00;;;;;;5029889;28;20928;-47
2022/06/09 10:42:08;;;;;;;4.03;1.47;;;26.80;40.40;;;;;;5024742;28;20457;-46
2022/06/09 10:44:44;;;;;;;4.60;1.30;;;26.90;40.40;;;;;;5029343;28;20946;-45
2022/06/09 10:56:30;;;;;;;3.10;1.27;;;26.60;40.10;;;;;;5025685;28;20966;-45
2022/06/09 10:59:39;;;;;;;6.80;1.40;;;26.50;39.60;;;;;;5022806;28;20462;-47
2022/06/09 11:02:22;;;;;;;2.03;1.17;;;26.70;40.80;;;;;;5023102;28;20460;-48
2022/06/09 11:04:52;;;;;;;2.93;1.07;;;27.00;40.00;;;;;;5026524;28;20435;-46
2022/06/09 11:07:33;;;;;;;3.03;1.40;;;27.20;38.20;;;;;;5027943;28;22372;-46
2022/06/09 11:10:08;;;;;;;5.00;1.23;;;27.00;38.90;;;;;;5017402;28;20494;-48
2022/06/09 11:13:02;;;;;;;4.30;1.50;;;26.90;39.40;;;;;;5027718;28;20452;-46
2022/06/09 11:15:43;;;;;;;2.53;1.63;;;26.80;39.90;;;;;;5026359;28;20466;-48
2022/06/09 11:18:23;;;;;;;3.33;1.37;;;26.50;41.30;;;;;;5024614;28;20468;-45
2022/06/09 11:20:49;;;;;;;6.13;1.53;;;26.10;41.50;;;;;;5013414;28;20505;-45
2022/06/09 11:23:26;;;;;;;5.10;1.70;;;26.10;41.80;;;;;;5024373;28;20529;-47
2022/06/09 11:26:12;;;;;;;2.57;1.60;;;26.30;40.40;;;;;;5025240;28;20546;-45
2022/06/09 11:28:49;;;;;;;2.73;1.20;;;26.40;40.20;;;;;;5019423;28;20812;-46
2022/06/09 11:31:33;;;;;;;2.03;1.13;;;26.20;40.60;;;;;;5023485;28;20455;-46
2022/06/09 11:34:35;;;;;;;5.10;1.47;;;26.20;39.90;;;;;;5027306;28;20450;-45
2022/06/09 11:37:22;;;;;;;5.30;1.50;;;26.40;41.30;;;;;;5020316;28;20454;-46
2022/06/09 11:40:05;;;;;;;3.90;1.83;;;26.10;42.60;;;;;;5020449;28;20554;-45
2022/06/09 11:42:44;;;;;;;3.27;1.33;;;25.90;42.30;;;;;;5028575;28;20810;-46
2022/06/09 11:45:43;;;;;;;2.97;1.17;;;25.90;41.20;;;;;;5027074;28;20543;-45
2022/06/09 11:48:17;;;;;;;5.23;1.40;;;26.30;41.40;;;;;;5017911;28;20452;-45
2022/06/09 11:50:45;;;;;;;2.73;1.50;;;26.20;41.10;;;;;;5012726;28;20443;-45
2022/06/09 11:53:21;;;;;;;6.37;1.43;;;26.50;40.60;;;;;;5015168;28;20437;-45
2022/06/09 11:56:08;;;;;;;4.03;1.73;;;26.70;40.20;;;;;;5025248;28;20530;-45
2022/06/09 11:58:34;;;;;;;1.80;1.70;;;26.70;39.10;;;;;;5026163;28;20853;-48
2022/06/09 12:01:17;;;;;;;3.07;1.60;;;26.60;39.90;;;;;;5022466;28;20468;-45
2022/06/09 12:03:46;;;;;;;4.57;1.67;;;26.90;39.50;;;;;;5021954;28;20194;-45
2022/06/09 12:06:25;;;;;;;2.57;1.23;;;27.10;40.60;;;;;;5022164;28;20493;-46
2022/06/09 12:09:02;;;;;;;3.50;1.70;;;27.10;39.90;;;;;;5029606;28;20780;-46
2022/06/09 12:11:56;;;;;;;7.70;2.00;;;27.40;38.50;;;;;;5017184;28;20525;-45
2022/06/09 12:14:35;;;;;;;3.60;1.20;;;27.30;36.40;;;;;;5021465;28;20456;-47
2022/06/09 12:17:20;;;;;;;3.10;1.37;;;27.00;37.10;;;;;;5028279;28;20435;-47
2022/06/09 12:19:55;;;;;;;3.03;1.23;;;27.20;37.00;;;;;;5024013;28;20435;-45
2022/06/09 12:22:38;;;;;;;4.33;1.40;;;27.10;38.00;;;;;;5012856;28;20525;-45
2022/06/09 12:25:23;;;;;;;2.67;1.40;;;27.10;38.80;;;;;;5023098;28;20940;-45
2022/06/09 12:27:51;;;;;;;3.27;1.50;;;27.40;38.40;;;;;;5024493;28;20908;-46
2022/06/09 12:30:17;;;;;;;3.50;1.10;;;27.70;38.30;;;;;;5023746;28;20436;-45
2022/06/09 12:32:50;;;;;;;5.53;1.43;;;27.60;36.90;;;;;;5016370;28;20505;-46
2022/06/09 12:35:33;;;;;;;4.73;1.73;;;27.70;37.50;;;;;;5027227;28;20440;-46
2022/06/09 12:38:01;;;;;;;3.87;1.57;;;27.60;38.20;;;;;;5009573;28;20456;-47
2022/06/09 12:40:44;;;;;;;3.50;2.03;;;27.40;37.20;;;;;;5018220;28;20495;-45
2022/06/09 12:43:23;;;;;;;4.37;1.30;;;27.40;38.50;;;;;;5015187;28;21018;-45
2022/06/09 12:46:21;;;;;;;1.70;1.13;;;27.60;37.70;;;;;;5022731;28;20614;-45
2022/06/09 12:48:49;;;;;;;4.37;1.40;;;27.90;36.60;;;;;;5017417;28;20459;-45
2022/06/09 12:51:18;;;;;;;1.33;1.20;;;27.80;36.60;;;;;;5016135;28;20450;-45
2022/06/09 12:53:53;;;;;;;5.27;1.60;;;28.00;37.00;;;;;;5015259;28;20451;-44
2022/06/09 12:56:40;;;;;;;1.63;1.53;;;28.30;37.00;;;;;;5022796;28;20831;-44
2022/06/09 12:59:19;;;;;;;2.90;1.13;;;28.50;36.60;;;;;;5013622;28;20441;-44
2022/06/09 13:01:55;;;;;;;4.77;1.40;;;28.80;35.50;;;;;;5016704;28;20483;-46
2022/06/09 13:04:22;;;;;;;3.37;1.20;;;29.00;35.20;;;;;;5020982;28;20467;-45
2022/06/09 13:06:48;;;;;;;2.73;1.20;;;28.70;34.10;;;;;;5020606;28;20487;-46
2022/06/09 13:09:14;;;;;;;2.73;1.10;;;28.60;35.20;;;;;;5016515;28;20468;-48
2022/06/09 13:14:30;;;;;;;2.00;1.30;;;28.90;35.40;;;;;;5011343;28;20309;-49
2022/06/09 13:17:00;;;;;;;2.00;1.30;;;28.80;34.60;;;;;;5020091;28;20530;-46
2022/06/09 13:19:29;;;;;;;3.60;1.30;;;28.90;33.80;;;;;;5021498;28;20447;-48
2022/06/09 13:21:58;;;;;;;1.60;1.13;;;28.90;34.00;;;;;;5013648;28;20437;-45
2022/06/09 13:24:31;;;;;;;2.47;1.40;;;29.00;34.00;;;;;;5010011;28;20491;-46
2022/06/09 13:26:57;;;;;;;4.03;1.47;;;28.80;33.60;;;;;;5018321;28;20489;-46
2022/06/09 13:29:25;;;;;;;1.80;1.10;;;28.90;34.70;;;;;;5015507;28;20891;-46
2022/06/09 13:32:08;;;;;;;4.40;1.33;;;29.00;33.50;;;;;;5027172;28;20448;-47
2022/06/09 13:34:37;;;;;;;4.40;1.63;;;29.10;33.50;;;;;;5018748;28;20484;-47
2022/06/09 13:37:30;;;;;;;2.20;1.30;;;28.60;33.20;;;;;;5025085;28;20455;-44